createdAt,value
2022-11-28T00:02:45.394Z,7.22
2022-11-28T00:07:46.926Z,7.18
2022-11-28T00:12:48.298Z,7.93
2022-11-28T00:17:49.656Z,8.05
2022-11-28T00:22:52.100Z,7.15
2022-11-28T00:27:53.521Z,7.38
2022-11-28T00:32:54.889Z,7.53
2022-11-28T00:37:56.236Z,7.60
2022-11-28T00:42:57.588Z,7.22
2022-11-28T00:47:58.992Z,7.13
2022-11-28T00:53:00.331Z,8.07
2022-11-28T00:58:01.707Z,8.23
2022-11-28T01:03:03.585Z,7.45
2022-11-28T01:08:04.929Z,7.63
2022-11-28T01:13:06.423Z,8.65
2022-11-28T01:18:08.135Z,8.60
2022-11-28T01:23:09.499Z,8.50
2022-11-28T01:28:10.831Z,8.30
2022-11-28T01:33:12.234Z,9.07
2022-11-28T01:38:13.536Z,8.52
2022-11-28T01:43:15.213Z,7.72
2022-11-28T01:48:22.793Z,8.55
2022-11-28T01:58:29.172Z,7.72
2022-11-28T02:03:38.286Z,8.15
2022-11-28T02:08:39.972Z,8.68
2022-11-28T02:13:53.166Z,8.55
2022-11-28T02:18:59.412Z,8.50
2022-11-28T02:24:31.812Z,8.85
2022-11-28T02:30:00.781Z,9.10
2022-11-28T02:35:19.577Z,9.52
2022-11-28T02:40:47.066Z,9.73
2022-11-28T02:46:13.677Z,9.93
2022-11-28T02:51:28.769Z,8.02
2022-11-28T02:56:30.311Z,8.35
2022-11-28T03:01:38.189Z,7.82
2022-11-28T03:06:52.175Z,8.00
2022-11-28T03:12:29.300Z,8.40
2022-11-28T03:17:54.866Z,8.15
2022-11-28T03:23:14.985Z,8.93
2022-11-28T03:28:23.023Z,9.18
2022-11-28T03:33:27.794Z,8.48
2022-11-28T03:38:35.576Z,8.80
2022-11-28T03:43:43.951Z,7.95
2022-11-28T03:48:49.555Z,9.40
2022-11-28T03:53:56.214Z,8.30
2022-11-28T03:59:16.488Z,8.82
2022-11-28T04:04:38.806Z,9.27
2022-11-28T04:09:49.422Z,8.82
2022-11-28T04:14:59.453Z,8.60
2022-11-28T04:20:09.148Z,9.00
2022-11-28T04:25:14.909Z,8.85
2022-11-28T04:30:16.650Z,8.23
2022-11-28T04:35:27.058Z,7.65
2022-11-28T04:40:32.144Z,8.73
2022-11-28T04:45:43.809Z,8.63
2022-11-28T04:51:09.365Z,8.85
2022-11-28T04:56:20.883Z,10.05
2022-11-28T05:01:27.655Z,9.25
2022-11-28T05:06:34.979Z,9.93
2022-11-28T05:11:36.337Z,9.60
2022-11-28T05:16:37.726Z,10.88
2022-11-28T05:21:39.137Z,10.27
2022-11-28T05:26:40.555Z,9.95
2022-11-28T05:31:41.931Z,10.35
2022-11-28T05:36:43.342Z,10.13
2022-11-28T05:41:44.716Z,9.80
2022-11-28T05:46:46.208Z,10.07
2022-11-28T05:51:48.705Z,9.63
2022-11-28T05:56:50.119Z,10.45
2022-11-28T06:01:51.708Z,9.13
2022-11-28T06:06:53.067Z,10.40
2022-11-28T06:11:54.428Z,9.93
2022-11-28T06:16:55.851Z,10.40
2022-11-28T06:21:57.222Z,11.13
2022-11-28T06:26:58.653Z,10.82
2022-11-28T06:32:00.086Z,10.98
2022-11-28T06:37:01.528Z,10.55
2022-11-28T06:42:02.962Z,10.55
2022-11-28T06:47:04.469Z,12.45
2022-11-28T06:52:05.857Z,11.27
2022-11-28T06:57:07.221Z,11.50
2022-11-28T07:02:10.879Z,10.43
2022-11-28T07:07:16.361Z,11.23
2022-11-28T07:12:18.185Z,10.68
2022-11-28T07:17:19.542Z,11.30
2022-11-28T07:22:22.211Z,10.73
2022-11-28T07:27:23.591Z,11.23
2022-11-28T07:32:25.240Z,12.15
2022-11-28T07:37:26.588Z,11.15
2022-11-28T07:42:27.979Z,10.57
2022-11-28T07:47:29.304Z,11.13
2022-11-28T07:52:30.640Z,11.05
2022-11-28T07:57:31.992Z,11.10
2022-11-28T08:02:33.486Z,10.90
2022-11-28T08:07:34.902Z,9.70
2022-11-28T08:12:36.326Z,11.57
2022-11-28T08:17:37.696Z,11.25
2022-11-28T08:22:39.058Z,11.65
2022-11-28T08:27:40.403Z,10.95
2022-11-28T08:32:41.763Z,11.48
2022-11-28T08:37:43.191Z,10.73
2022-11-28T08:42:44.552Z,11.80
2022-11-28T08:47:45.980Z,11.90
2022-11-28T08:52:47.393Z,10.27
2022-11-28T08:57:48.796Z,10.88
2022-11-28T09:02:50.161Z,12.45
2022-11-28T09:07:54.908Z,10.98
2022-11-28T09:12:56.417Z,10.32
2022-11-28T09:17:58.178Z,11.10
2022-11-28T09:22:59.729Z,10.77
2022-11-28T09:28:01.325Z,11.75
2022-11-28T09:33:02.777Z,10.40
2022-11-28T09:38:04.213Z,11.45
2022-11-28T09:43:36.435Z,11.13
2022-11-28T09:48:46.617Z,10.68
2022-11-28T09:54:16.690Z,10.85
2022-11-28T09:59:24.444Z,10.82
2022-11-28T10:05:05.555Z,10.85
2022-11-28T10:10:34.426Z,10.85
2022-11-28T10:15:54.165Z,11.95
2022-11-28T10:21:02.587Z,10.65
2022-11-28T10:26:23.254Z,11.90
2022-11-28T10:31:33.402Z,11.32
2022-11-28T10:36:51.607Z,11.38
2022-11-28T10:42:11.754Z,11.57
2022-11-28T10:47:48.729Z,10.25
2022-11-28T10:53:27.136Z,9.77
2022-11-28T11:03:38.591Z,10.27
2022-11-28T11:08:41.390Z,9.48
2022-11-28T11:14:04.143Z,9.52
2022-11-28T11:19:05.561Z,9.55
2022-11-28T11:24:17.167Z,9.77
2022-11-28T11:29:35.621Z,9.25
2022-11-28T11:34:44.207Z,8.50
2022-11-28T11:39:52.850Z,8.00
2022-11-28T11:44:54.467Z,7.57
2022-11-28T11:50:05.016Z,7.97
2022-11-28T11:55:15.004Z,7.53
2022-11-28T12:00:21.050Z,8.63
2022-11-28T12:05:52.696Z,8.15
2022-11-28T14:08:06.066Z,11.20
2022-11-28T14:13:16.466Z,10.70
2022-11-28T14:19:00.317Z,10.85
2022-11-28T14:29:39.406Z,12.48
2022-11-28T14:34:47.294Z,12.73
2022-11-28T14:39:50.927Z,11.88
2022-11-28T14:55:26.157Z,13.40
2022-11-28T15:00:35.054Z,12.48
2022-11-28T15:05:52.476Z,12.82
2022-11-28T15:16:57.659Z,12.80
2022-11-28T15:21:59.471Z,13.03
2022-11-28T15:27:07.073Z,14.07
2022-11-28T15:32:14.799Z,12.77
2022-11-28T15:37:19.804Z,12.82
2022-11-28T15:42:29.712Z,13.20
2022-11-28T15:47:32.172Z,13.73
2022-11-28T15:52:33.855Z,14.10
2022-11-28T15:57:36.915Z,16.40
2022-11-28T16:02:40.879Z,14.55
2022-11-28T16:13:04.761Z,13.45
2022-11-28T16:18:07.059Z,14.30
2022-11-28T16:23:30.506Z,12.63
2022-11-28T16:28:43.132Z,12.32
2022-11-28T16:33:48.175Z,12.80
2022-11-28T16:39:04.769Z,13.23
2022-11-28T16:44:14.802Z,13.88
2022-11-28T16:49:42.411Z,14.00
2022-11-28T16:54:44.121Z,15.60
2022-11-28T16:59:47.163Z,15.00
2022-11-28T17:04:50.330Z,16.05
2022-11-28T17:09:51.718Z,13.75
2022-11-28T17:14:54.286Z,14.43
2022-11-28T17:19:55.656Z,14.07
2022-11-28T17:25:01.620Z,14.55
2022-11-28T17:30:03.113Z,13.68
2022-11-28T17:35:13.708Z,13.85
2022-11-28T17:40:33.427Z,15.82
2022-11-28T17:45:35.303Z,14.35
2022-11-28T17:50:37.280Z,14.07
2022-11-28T17:55:40.971Z,14.65
2022-11-28T18:00:42.662Z,15.05
2022-11-28T18:05:46.727Z,15.52
2022-11-28T18:10:48.519Z,15.70
2022-11-28T18:15:53.190Z,14.40
2022-11-28T18:20:54.552Z,17.60
2022-11-28T18:25:55.883Z,16.63
2022-11-28T18:30:57.230Z,18.15
2022-11-28T18:36:08.613Z,20.83
2022-11-28T18:41:10.124Z,19.30
2022-11-28T18:46:17.149Z,16.65
2022-11-28T18:51:21.811Z,18.80
2022-11-28T18:56:24.818Z,16.48
2022-11-28T19:01:32.363Z,19.05
2022-11-28T19:11:36.973Z,16.83
2022-11-28T19:16:38.397Z,17.60
2022-11-28T19:21:39.803Z,16.75
2022-11-28T19:26:41.372Z,17.83
2022-11-28T19:31:42.880Z,17.00
2022-11-28T19:36:47.479Z,15.70
2022-11-28T19:41:50.630Z,17.88
2022-11-28T19:46:53.368Z,17.05
2022-11-28T19:51:54.724Z,17.55
2022-11-28T19:56:56.146Z,28.65
2022-11-28T20:01:58.699Z,24.25
2022-11-28T20:07:00.076Z,19.08
2022-11-28T20:12:01.421Z,17.52
2022-11-28T20:17:02.774Z,17.98
2022-11-28T20:22:04.123Z,18.63
2022-11-28T20:27:05.515Z,17.75
2022-11-28T20:32:06.962Z,19.10
2022-11-28T20:37:08.492Z,17.90
2022-11-28T20:42:09.928Z,18.08
2022-11-28T20:47:11.696Z,20.30
2022-11-28T20:52:13.092Z,20.35
2022-11-28T20:57:21.408Z,18.75
2022-11-28T21:02:23.664Z,17.83
2022-11-28T21:07:26.894Z,19.17
2022-11-28T21:12:28.261Z,18.55
2022-11-28T21:17:29.636Z,15.80
2022-11-28T21:22:31.682Z,18.80
2022-11-28T21:27:35.217Z,16.23
2022-11-28T21:32:36.570Z,16.85
2022-11-28T21:37:37.918Z,18.38
2022-11-28T21:42:39.294Z,15.48
2022-11-28T21:47:40.685Z,15.32
2022-11-28T21:52:42.014Z,17.58
2022-11-28T21:57:44.525Z,17.30
2022-11-28T22:02:47.270Z,17.63
2022-11-28T22:07:48.654Z,20.40
2022-11-28T22:12:50.045Z,18.70
2022-11-28T22:17:51.395Z,18.58
2022-11-28T22:22:52.801Z,20.35
2022-11-28T22:27:54.268Z,17.38
2022-11-28T22:32:55.758Z,17.85
2022-11-28T22:37:57.092Z,17.88
2022-11-28T22:42:58.452Z,18.08
2022-11-28T22:47:59.977Z,16.95
2022-11-28T22:53:01.410Z,18.02
2022-11-28T22:58:02.772Z,17.75
2022-11-28T23:03:04.193Z,17.25
2022-11-28T23:08:05.811Z,16.23
2022-11-28T23:13:07.164Z,17.08
2022-11-28T23:18:08.501Z,15.70
2022-11-28T23:23:09.826Z,16.25
2022-11-28T23:28:11.164Z,16.42
2022-11-28T23:33:12.510Z,16.90
2022-11-28T23:38:15.523Z,17.08
2022-11-28T23:43:16.868Z,16.98
2022-11-28T23:48:18.429Z,15.70
2022-11-28T23:53:19.789Z,16.20
2022-11-28T23:58:21.126Z,15.90
